sensor_id;sensor_type;location;lat;lon;timestamp;pressure;altitude;pressure_sealevel;temperature;humidity
1207;BME280;593;53.184;8.216;2023-06-14T00:01:01;101407.75;;;21.10;49.50
1207;BME280;593;53.184;8.216;2023-06-14T00:03:28;101413.97;;;21.07;49.19
1207;BME280;593;53.184;8.216;2023-06-14T00:05:54;101407.44;;;21.03;49.73
1207;BME280;593;53.184;8.216;2023-06-14T00:08:19;101401.75;;;20.99;50.25
1207;BME280;593;53.184;8.216;2023-06-14T00:10:46;101406.81;;;20.97;50.51
1207;BME280;593;53.184;8.216;2023-06-14T00:13:12;101408.97;;;20.92;50.41
1207;BME280;593;53.184;8.216;2023-06-14T00:15:37;101408.50;;;20.90;50.57
1207;BME280;593;53.184;8.216;2023-06-14T00:18:03;101411.91;;;20.87;50.56
1207;BME280;593;53.184;8.216;2023-06-14T00:20:31;101404.00;;;20.77;51.06
1207;BME280;593;53.184;8.216;2023-06-14T00:22:58;101407.09;;;20.75;51.36
1207;BME280;593;53.184;8.216;2023-06-14T00:25:24;101409.53;;;20.77;51.38
1207;BME280;593;53.184;8.216;2023-06-14T00:27:50;101412.16;;;20.73;51.70
1207;BME280;593;53.184;8.216;2023-06-14T00:30:17;101410.41;;;20.69;52.20
1207;BME280;593;53.184;8.216;2023-06-14T00:32:43;101412.34;;;20.68;52.29
1207;BME280;593;53.184;8.216;2023-06-14T00:35:09;101411.06;;;20.66;52.58
1207;BME280;593;53.184;8.216;2023-06-14T00:37:35;101413.66;;;20.62;52.76
1207;BME280;593;53.184;8.216;2023-06-14T00:40:01;101414.66;;;20.58;52.86
1207;BME280;593;53.184;8.216;2023-06-14T00:42:27;101415.47;;;20.58;53.06
1207;BME280;593;53.184;8.216;2023-06-14T00:44:53;101420.06;;;20.54;53.00
1207;BME280;593;53.184;8.216;2023-06-14T00:47:19;101421.84;;;20.50;53.91
1207;BME280;593;53.184;8.216;2023-06-14T00:49:49;101426.56;;;20.50;53.68
1207;BME280;593;53.184;8.216;2023-06-14T00:52:16;101420.88;;;20.46;53.96
1207;BME280;593;53.184;8.216;2023-06-14T00:54:42;101416.84;;;20.43;53.90
1207;BME280;593;53.184;8.216;2023-06-14T00:57:09;101418.31;;;20.41;54.17
1207;BME280;593;53.184;8.216;2023-06-14T00:59:41;101407.75;;;20.34;54.90
1207;BME280;593;53.184;8.216;2023-06-14T01:02:07;101417.19;;;20.33;54.37
1207;BME280;593;53.184;8.216;2023-06-14T01:04:33;101411.19;;;20.31;54.49
1207;BME280;593;53.184;8.216;2023-06-14T01:07:04;101417.69;;;20.27;55.08
1207;BME280;593;53.184;8.216;2023-06-14T01:09:55;101408.44;;;20.23;55.54
1207;BME280;593;53.184;8.216;2023-06-14T01:12:31;101420.09;;;20.20;55.16
1207;BME280;593;53.184;8.216;2023-06-14T01:15:01;101413.63;;;20.16;55.81
1207;BME280;593;53.184;8.216;2023-06-14T01:17:28;101411.84;;;20.11;55.56
1207;BME280;593;53.184;8.216;2023-06-14T01:19:59;101417.19;;;20.08;56.03
1207;BME280;593;53.184;8.216;2023-06-14T01:22:26;101421.09;;;20.07;56.55
1207;BME280;593;53.184;8.216;2023-06-14T01:24:53;101419.31;;;20.02;56.87
1207;BME280;593;53.184;8.216;2023-06-14T01:27:22;101426.00;;;20.01;56.53
1207;BME280;593;53.184;8.216;2023-06-14T01:29:51;101415.91;;;19.97;57.19
1207;BME280;593;53.184;8.216;2023-06-14T01:32:17;101423.72;;;19.95;57.61
1207;BME280;593;53.184;8.216;2023-06-14T01:34:44;101424.06;;;19.93;57.30
1207;BME280;593;53.184;8.216;2023-06-14T01:37:11;101421.47;;;19.88;58.15
1207;BME280;593;53.184;8.216;2023-06-14T01:39:38;101419.81;;;19.87;57.54
1207;BME280;593;53.184;8.216;2023-06-14T01:42:04;101424.38;;;19.83;58.10
1207;BME280;593;53.184;8.216;2023-06-14T01:44:31;101423.91;;;19.81;58.42
1207;BME280;593;53.184;8.216;2023-06-14T01:46:57;101427.13;;;19.74;58.73
1207;BME280;593;53.184;8.216;2023-06-14T01:49:22;101424.53;;;19.78;58.37
1207;BME280;593;53.184;8.216;2023-06-14T01:51:48;101426.66;;;19.72;58.70
1207;BME280;593;53.184;8.216;2023-06-14T01:54:14;101423.59;;;19.74;59.14
1207;BME280;593;53.184;8.216;2023-06-14T01:56:39;101426.50;;;19.69;59.40
1207;BME280;593;53.184;8.216;2023-06-14T01:59:05;101430.06;;;19.69;59.12
1207;BME280;593;53.184;8.216;2023-06-14T02:01:30;101434.63;;;19.65;59.84
1207;BME280;593;53.184;8.216;2023-06-14T02:03:56;101426.00;;;19.58;59.71
1207;BME280;593;53.184;8.216;2023-06-14T02:06:21;101427.97;;;19.58;59.68
1207;BME280;593;53.184;8.216;2023-06-14T02:08:46;101429.41;;;19.55;60.20
1207;BME280;593;53.184;8.216;2023-06-14T02:11:12;101431.34;;;19.55;60.60
1207;BME280;593;53.184;8.216;2023-06-14T02:13:37;101428.44;;;19.51;60.41
1207;BME280;593;53.184;8.216;2023-06-14T02:16:03;101427.94;;;19.49;60.72
1207;BME280;593;53.184;8.216;2023-06-14T02:18:28;101423.88;;;19.47;60.65
1207;BME280;593;53.184;8.216;2023-06-14T02:20:54;101432.50;;;19.45;61.21
1207;BME280;593;53.184;8.216;2023-06-14T02:23:19;101429.53;;;19.42;61.56
1207;BME280;593;53.184;8.216;2023-06-14T02:25:45;101431.00;;;19.39;61.42
1207;BME280;593;53.184;8.216;2023-06-14T02:28:11;101438.50;;;19.39;61.75
1207;BME280;593;53.184;8.216;2023-06-14T02:30:36;101430.81;;;19.36;61.59
1207;BME280;593;53.184;8.216;2023-06-14T02:33:02;101437.81;;;19.33;62.43
1207;BME280;593;53.184;8.216;2023-06-14T02:35:29;101445.75;;;19.35;62.44
1207;BME280;593;53.184;8.216;2023-06-14T02:37:54;101436.81;;;19.29;62.36
1207;BME280;593;53.184;8.216;2023-06-14T02:40:20;101433.41;;;19.24;62.18
1207;BME280;593;53.184;8.216;2023-06-14T02:42:45;101443.28;;;19.25;63.08
1207;BME280;593;53.184;8.216;2023-06-14T02:45:11;101446.88;;;19.25;62.66
1207;BME280;593;53.184;8.216;2023-06-14T02:47:36;101432.56;;;19.14;63.00
1207;BME280;593;53.184;8.216;2023-06-14T02:50:02;101449.78;;;19.20;63.15
1207;BME280;593;53.184;8.216;2023-06-14T02:52:28;101445.72;;;19.17;63.42
1207;BME280;593;53.184;8.216;2023-06-14T02:54:54;101444.41;;;19.15;63.17
1207;BME280;593;53.184;8.216;2023-06-14T02:57:20;101454.31;;;19.16;63.46
1207;BME280;593;53.184;8.216;2023-06-14T02:59:46;101453.00;;;19.13;63.91
1207;BME280;593;53.184;8.216;2023-06-14T03:02:11;101455.09;;;19.08;64.09
1207;BME280;593;53.184;8.216;2023-06-14T03:04:36;101456.69;;;19.09;64.43
1207;BME280;593;53.184;8.216;2023-06-14T03:07:03;101464.50;;;19.07;63.69
1207;BME280;593;53.184;8.216;2023-06-14T03:09:37;101465.63;;;19.06;64.06
1207;BME280;593;53.184;8.216;2023-06-14T03:12:04;101460.56;;;18.99;64.00
1207;BME280;593;53.184;8.216;2023-06-14T03:14:30;101467.72;;;19.00;64.40
1207;BME280;593;53.184;8.216;2023-06-14T03:16:56;101474.06;;;19.01;64.83
1207;BME280;593;53.184;8.216;2023-06-14T03:19:25;101470.78;;;18.99;65.21
1207;BME280;593;53.184;8.216;2023-06-14T03:21:51;101480.22;;;18.98;65.06
1207;BME280;593;53.184;8.216;2023-06-14T03:24:17;101481.66;;;18.95;65.13
1207;BME280;593;53.184;8.216;2023-06-14T03:26:43;101486.69;;;18.93;65.23
1207;BME280;593;53.184;8.216;2023-06-14T03:29:08;101488.44;;;18.89;65.34
1207;BME280;593;53.184;8.216;2023-06-14T03:31:34;101498.34;;;18.90;65.65
1207;BME280;593;53.184;8.216;2023-06-14T03:34:01;101484.69;;;18.85;65.68
1207;BME280;593;53.184;8.216;2023-06-14T03:36:27;101497.66;;;18.85;65.80
1207;BME280;593;53.184;8.216;2023-06-14T03:38:55;101484.16;;;18.75;65.83
1207;BME280;593;53.184;8.216;2023-06-14T03:41:21;101499.09;;;18.82;66.07
1207;BME280;593;53.184;8.216;2023-06-14T03:43:48;101494.06;;;18.76;66.51
1207;BME280;593;53.184;8.216;2023-06-14T03:46:14;101498.41;;;18.77;66.58
1207;BME280;593;53.184;8.216;2023-06-14T03:48:39;101497.13;;;18.74;67.10
1207;BME280;593;53.184;8.216;2023-06-14T03:51:05;101505.72;;;18.73;67.33
1207;BME280;593;53.184;8.216;2023-06-14T03:53:30;101503.56;;;18.70;67.12
1207;BME280;593;53.184;8.216;2023-06-14T03:55:56;101506.34;;;18.70;67.52
1207;BME280;593;53.184;8.216;2023-06-14T03:58:23;101507.78;;;18.67;67.69
1207;BME280;593;53.184;8.216;2023-06-14T04:00:48;101501.28;;;18.63;67.92
1207;BME280;593;53.184;8.216;2023-06-14T04:03:14;101508.41;;;18.64;68.28
1207;BME280;593;53.184;8.216;2023-06-14T04:05:41;101511.81;;;18.61;68.36
1207;BME280;593;53.184;8.216;2023-06-14T04:08:08;101508.53;;;18.59;68.07
1207;BME280;593;53.184;8.216;2023-06-14T04:10:34;101509.69;;;18.58;68.71
1207;BME280;593;53.184;8.216;2023-06-14T04:13:00;101514.72;;;18.56;68.84
1207;BME280;593;53.184;8.216;2023-06-14T04:15:25;101515.00;;;18.54;68.66
1207;BME280;593;53.184;8.216;2023-06-14T04:17:53;101521.81;;;18.57;69.21
1207;BME280;593;53.184;8.216;2023-06-14T04:20:22;101521.81;;;18.57;69.29
1207;BME280;593;53.184;8.216;2023-06-14T04:22:50;101517.94;;;18.58;69.62
1207;BME280;593;53.184;8.216;2023-06-14T04:25:15;101516.44;;;18.52;69.69
1207;BME280;593;53.184;8.216;2023-06-14T04:27:42;101523.75;;;18.56;69.58
1207;BME280;593;53.184;8.216;2023-06-14T04:30:07;101528.47;;;18.56;69.61
1207;BME280;593;53.184;8.216;2023-06-14T04:32:33;101532.34;;;18.55;69.34
1207;BME280;593;53.184;8.216;2023-06-14T04:35:00;101538.97;;;18.54;69.61
1207;BME280;593;53.184;8.216;2023-06-14T04:37:27;101531.53;;;18.54;70.16
1207;BME280;593;53.184;8.216;2023-06-14T04:39:55;101529.59;;;18.55;70.22
1207;BME280;593;53.184;8.216;2023-06-14T04:42:21;101526.03;;;18.54;70.44
1207;BME280;593;53.184;8.216;2023-06-14T04:44:50;101532.84;;;18.57;70.70
1207;BME280;593;53.184;8.216;2023-06-14T04:47:17;101528.16;;;18.58;70.78
1207;BME280;593;53.184;8.216;2023-06-14T04:49:42;101525.19;;;18.54;71.03
1207;BME280;593;53.184;8.216;2023-06-14T04:52:08;101535.31;;;18.59;71.18
1207;BME280;593;53.184;8.216;2023-06-14T04:54:36;101538.06;;;18.59;71.24
1207;BME280;593;53.184;8.216;2023-06-14T04:57:05;101538.06;;;18.59;70.40
1207;BME280;593;53.184;8.216;2023-06-14T04:59:31;101535.47;;;18.62;70.39
1207;BME280;593;53.184;8.216;2023-06-14T05:01:58;101542.16;;;18.70;71.05
1207;BME280;593;53.184;8.216;2023-06-14T05:04:25;101545.13;;;18.73;71.67
1207;BME280;593;53.184;8.216;2023-06-14T05:06:52;101545.47;;;18.80;71.55
1207;BME280;593;53.184;8.216;2023-06-14T05:09:19;101553.28;;;18.87;72.02
1207;BME280;593;53.184;8.216;2023-06-14T05:11:45;101554.59;;;18.89;71.36
1207;BME280;593;53.184;8.216;2023-06-14T05:14:46;101554.53;;;19.03;71.76
1207;BME280;593;53.184;8.216;2023-06-14T05:17:59;101558.31;;;19.15;71.15
1207;BME280;593;53.184;8.216;2023-06-14T05:20:25;101558.66;;;19.23;70.45
1207;BME280;593;53.184;8.216;2023-06-14T05:22:53;101556.09;;;19.26;70.69
1207;BME280;593;53.184;8.216;2023-06-14T05:25:19;101561.03;;;19.38;70.54
1207;BME280;593;53.184;8.216;2023-06-14T05:27:46;101560.75;;;19.48;69.44
1207;BME280;593;53.184;8.216;2023-06-14T05:30:11;101560.78;;;19.56;69.03
1207;BME280;593;53.184;8.216;2023-06-14T05:32:37;101555.09;;;19.61;68.86
1207;BME280;593;53.184;8.216;2023-06-14T05:35:04;101551.72;;;19.73;68.73
1207;BME280;593;53.184;8.216;2023-06-14T05:37:37;101573.97;;;19.85;68.59
1207;BME280;593;53.184;8.216;2023-06-14T05:40:04;101574.81;;;19.94;68.22
1207;BME280;593;53.184;8.216;2023-06-14T05:42:31;101561.16;;;19.98;68.33
1207;BME280;593;53.184;8.216;2023-06-14T05:44:56;101571.56;;;20.09;68.35
1207;BME280;593;53.184;8.216;2023-06-14T05:47:22;101567.69;;;20.19;67.98
1207;BME280;593;53.184;8.216;2023-06-14T05:49:56;101573.56;;;20.34;67.02
1207;BME280;593;53.184;8.216;2023-06-14T05:52:28;101566.75;;;20.40;66.33
1207;BME280;593;53.184;8.216;2023-06-14T05:54:55;101571.75;;;20.47;66.40
1207;BME280;593;53.184;8.216;2023-06-14T05:57:20;101575.50;;;20.60;66.29
1207;BME280;593;53.184;8.216;2023-06-14T05:59:46;101579.06;;;20.69;66.37
1207;BME280;593;53.184;8.216;2023-06-14T06:02:11;101585.22;;;20.83;65.63
1207;BME280;593;53.184;8.216;2023-06-14T06:04:36;101581.16;;;20.89;64.92
1207;BME280;593;53.184;8.216;2023-06-14T06:07:02;101591.19;;;21.02;64.81
1207;BME280;593;53.184;8.216;2023-06-14T06:09:27;101575.75;;;21.01;64.53
1207;BME280;593;53.184;8.216;2023-06-14T06:11:53;101587.44;;;21.15;64.36
1207;BME280;593;53.184;8.216;2023-06-14T06:14:18;101583.66;;;21.20;63.48
1207;BME280;593;53.184;8.216;2023-06-14T06:16:44;101598.63;;;21.27;62.39
1207;BME280;593;53.184;8.216;2023-06-14T06:19:09;101605.28;;;21.35;62.81
1207;BME280;593;53.184;8.216;2023-06-14T06:21:35;101599.56;;;21.40;62.63
1207;BME280;593;53.184;8.216;2023-06-14T06:24:00;101600.16;;;21.54;62.34
1207;BME280;593;53.184;8.216;2023-06-14T06:26:29;101603.53;;;21.59;62.07
1207;BME280;593;53.184;8.216;2023-06-14T06:28:55;101595.84;;;21.65;62.33
1207;BME280;593;53.184;8.216;2023-06-14T06:31:20;101596.94;;;21.72;62.35
1207;BME280;593;53.184;8.216;2023-06-14T06:33:47;101598.19;;;21.84;61.54
1207;BME280;593;53.184;8.216;2023-06-14T06:36:12;101604.53;;;21.93;61.82
1207;BME280;593;53.184;8.216;2023-06-14T06:38:38;101594.88;;;21.99;61.36
1207;BME280;593;53.184;8.216;2023-06-14T06:41:03;101596.16;;;22.01;61.22
1207;BME280;593;53.184;8.216;2023-06-14T06:43:28;101599.34;;;22.12;60.87
1207;BME280;593;53.184;8.216;2023-06-14T06:45:54;101598.97;;;22.22;60.79
1207;BME280;593;53.184;8.216;2023-06-14T06:48:19;101608.81;;;22.31;59.64
1207;BME280;593;53.184;8.216;2023-06-14T06:50:44;101603.19;;;22.40;59.04
1207;BME280;593;53.184;8.216;2023-06-14T06:53:10;101610.97;;;22.47;58.31
1207;BME280;593;53.184;8.216;2023-06-14T06:55:35;101618.94;;;22.48;58.22
1207;BME280;593;53.184;8.216;2023-06-14T06:58:00;101619.41;;;22.50;57.82
1207;BME280;593;53.184;8.216;2023-06-14T07:00:26;101620.03;;;22.56;58.54
1207;BME280;593;53.184;8.216;2023-06-14T07:02:51;101615.59;;;22.63;58.61
1207;BME280;593;53.184;8.216;2023-06-14T07:05:29;101625.91;;;22.75;56.78
1207;BME280;593;53.184;8.216;2023-06-14T07:07:57;101618.88;;;22.77;56.19
1207;BME280;593;53.184;8.216;2023-06-14T07:10:23;101631.41;;;22.83;55.21
1207;BME280;593;53.184;8.216;2023-06-14T07:12:49;101622.84;;;22.88;54.34
1207;BME280;593;53.184;8.216;2023-06-14T07:15:15;101631.91;;;22.97;53.95
1207;BME280;593;53.184;8.216;2023-06-14T07:17:41;101629.19;;;23.10;52.75
1207;BME280;593;53.184;8.216;2023-06-14T07:20:08;101627.25;;;23.22;53.12
1207;BME280;593;53.184;8.216;2023-06-14T07:22:40;101628.56;;;23.37;53.14
1207;BME280;593;53.184;8.216;2023-06-14T07:25:10;101630.06;;;23.46;52.37
1207;BME280;593;53.184;8.216;2023-06-14T07:27:39;101636.22;;;23.52;51.92
1207;BME280;593;53.184;8.216;2023-06-14T07:30:06;101627.91;;;23.52;51.84
1207;BME280;593;53.184;8.216;2023-06-14T07:32:32;101624.75;;;23.66;52.31
1207;BME280;593;53.184;8.216;2023-06-14T07:34:57;101629.28;;;23.82;52.67
1207;BME280;593;53.184;8.216;2023-06-14T07:37:22;101617.47;;;23.97;52.25
1207;BME280;593;53.184;8.216;2023-06-14T07:40:16;101614.34;;;24.11;51.96
1207;BME280;593;53.184;8.216;2023-06-14T07:43:07;101629.34;;;24.34;51.14
1207;BME280;593;53.184;8.216;2023-06-14T07:45:42;101623.66;;;24.31;50.38
1207;BME280;593;53.184;8.216;2023-06-14T07:48:09;101631.44;;;24.37;50.57
1207;BME280;593;53.184;8.216;2023-06-14T07:50:51;101630.13;;;24.47;51.26
1207;BME280;593;53.184;8.216;2023-06-14T07:53:16;101630.91;;;24.59;49.48
1207;BME280;593;53.184;8.216;2023-06-14T07:55:47;101625.97;;;24.68;49.19
1207;BME280;593;53.184;8.216;2023-06-14T07:58:15;101630.81;;;24.83;48.90
1207;BME280;593;53.184;8.216;2023-06-14T08:00:41;101621.69;;;24.99;49.16
1207;BME280;593;53.184;8.216;2023-06-14T08:03:06;101626.13;;;25.15;49.16
1207;BME280;593;53.184;8.216;2023-06-14T08:05:31;101622.34;;;25.23;47.47
1207;BME280;593;53.184;8.216;2023-06-14T08:07:57;101629.63;;;25.28;47.21
1207;BME280;593;53.184;8.216;2023-06-14T08:10:22;101627.69;;;25.44;47.12
1207;BME280;593;53.184;8.216;2023-06-14T08:12:48;101633.47;;;25.51;47.58
1207;BME280;593;53.184;8.216;2023-06-14T08:15:15;101629.69;;;25.59;46.55
1207;BME280;593;53.184;8.216;2023-06-14T08:17:42;101631.56;;;25.71;47.03
1207;BME280;593;53.184;8.216;2023-06-14T08:20:09;101632.69;;;25.85;46.37
1207;BME280;593;53.184;8.216;2023-06-14T08:22:35;101634.16;;;25.95;45.10
1207;BME280;593;53.184;8.216;2023-06-14T08:25:01;101626.94;;;25.94;44.41
1207;BME280;593;53.184;8.216;2023-06-14T08:27:38;101632.69;;;26.01;44.08
1207;BME280;593;53.184;8.216;2023-06-14T08:30:07;101632.06;;;26.07;43.78
1207;BME280;593;53.184;8.216;2023-06-14T08:32:33;101626.38;;;26.20;44.06
1207;BME280;593;53.184;8.216;2023-06-14T08:34:58;101633.06;;;26.34;42.81
1207;BME280;593;53.184;8.216;2023-06-14T08:37:23;101626.00;;;26.21;43.08
1207;BME280;593;53.184;8.216;2023-06-14T08:39:49;101624.47;;;26.24;42.82
1207;BME280;593;53.184;8.216;2023-06-14T08:42:15;101624.94;;;26.10;41.43
1207;BME280;593;53.184;8.216;2023-06-14T08:44:41;101626.50;;;25.92;41.15
1207;BME280;593;53.184;8.216;2023-06-14T08:47:07;101619.13;;;25.84;41.70
1207;BME280;593;53.184;8.216;2023-06-14T08:49:36;101631.16;;;25.88;41.24
1207;BME280;593;53.184;8.216;2023-06-14T08:52:03;101634.97;;;25.80;42.15
1207;BME280;593;53.184;8.216;2023-06-14T08:54:31;101619.97;;;25.69;41.88
1207;BME280;593;53.184;8.216;2023-06-14T08:56:57;101622.56;;;25.77;43.05
1207;BME280;593;53.184;8.216;2023-06-14T08:59:25;101628.66;;;25.83;43.68
1207;BME280;593;53.184;8.216;2023-06-14T09:01:52;101633.78;;;25.81;44.06
1207;BME280;593;53.184;8.216;2023-06-14T09:04:18;101625.00;;;25.79;42.73
1207;BME280;593;53.184;8.216;2023-06-14T09:06:45;101625.91;;;25.67;41.62
1207;BME280;593;53.184;8.216;2023-06-14T09:09:10;101636.97;;;25.48;41.90
1207;BME280;593;53.184;8.216;2023-06-14T09:11:36;101641.47;;;25.53;42.44
1207;BME280;593;53.184;8.216;2023-06-14T09:14:01;101633.06;;;25.37;42.70
1207;BME280;593;53.184;8.216;2023-06-14T09:16:27;101641.06;;;25.38;42.00
1207;BME280;593;53.184;8.216;2023-06-14T09:18:53;101639.47;;;25.37;41.83
1207;BME280;593;53.184;8.216;2023-06-14T09:21:19;101639.63;;;25.44;41.38
1207;BME280;593;53.184;8.216;2023-06-14T09:23:47;101635.50;;;25.38;43.51
1207;BME280;593;53.184;8.216;2023-06-14T09:26:17;101642.31;;;25.25;44.24
1207;BME280;593;53.184;8.216;2023-06-14T09:28:46;101644.47;;;25.16;43.50
1207;BME280;593;53.184;8.216;2023-06-14T09:31:13;101646.53;;;25.19;43.03
1207;BME280;593;53.184;8.216;2023-06-14T09:33:41;101629.63;;;25.28;42.98
1207;BME280;593;53.184;8.216;2023-06-14T09:36:12;101662.78;;;25.17;43.15
1207;BME280;593;53.184;8.216;2023-06-14T09:38:40;101642.25;;;24.94;42.05
1207;BME280;593;53.184;8.216;2023-06-14T09:41:05;101645.41;;;24.93;42.70
1207;BME280;593;53.184;8.216;2023-06-14T09:43:34;101631.13;;;24.94;42.51
1207;BME280;593;53.184;8.216;2023-06-14T09:46:04;101639.09;;;24.96;42.52
1207;BME280;593;53.184;8.216;2023-06-14T09:48:30;101640.75;;;24.97;43.46
1207;BME280;593;53.184;8.216;2023-06-14T09:50:57;101644.59;;;25.08;42.60
1207;BME280;593;53.184;8.216;2023-06-14T09:53:23;101635.91;;;25.09;42.43
1207;BME280;593;53.184;8.216;2023-06-14T09:55:50;101629.28;;;25.14;44.18
1207;BME280;593;53.184;8.216;2023-06-14T09:58:17;101638.25;;;25.23;43.13
1207;BME280;593;53.184;8.216;2023-06-14T10:00:45;101640.69;;;25.24;41.95
1207;BME280;593;53.184;8.216;2023-06-14T10:03:14;101630.72;;;25.23;43.41
1207;BME280;593;53.184;8.216;2023-06-14T10:05:43;101632.91;;;25.30;43.25
1207;BME280;593;53.184;8.216;2023-06-14T10:08:10;101643.94;;;25.26;43.37
1207;BME280;593;53.184;8.216;2023-06-14T10:10:39;101636.03;;;25.28;42.79
1207;BME280;593;53.184;8.216;2023-06-14T10:13:06;101633.22;;;25.28;43.28
1207;BME280;593;53.184;8.216;2023-06-14T10:18:31;101640.50;;;25.33;42.55
1207;BME280;593;53.184;8.216;2023-06-14T10:21:05;101632.38;;;25.40;42.62
1207;BME280;593;53.184;8.216;2023-06-14T10:23:37;101623.94;;;25.52;44.46
1207;BME280;593;53.184;8.216;2023-06-14T10:26:03;101632.03;;;25.57;42.84
1207;BME280;593;53.184;8.216;2023-06-14T10:28:29;101628.69;;;25.52;42.53
1207;BME280;593;53.184;8.216;2023-06-14T10:31:03;101630.41;;;25.56;42.87
1207;BME280;593;53.184;8.216;2023-06-14T10:33:33;101630.94;;;25.62;42.67
1207;BME280;593;53.184;8.216;2023-06-14T10:36:24;101628.97;;;25.78;43.32
1207;BME280;593;53.184;8.216;2023-06-14T10:39:04;101641.88;;;25.86;43.35
1207;BME280;593;53.184;8.216;2023-06-14T10:41:34;101642.81;;;25.74;42.31
1207;BME280;593;53.184;8.216;2023-06-14T10:46:38;101619.69;;;25.74;44.10
1207;BME280;593;53.184;8.216;2023-06-14T10:49:04;101611.78;;;25.76;44.90
1207;BME280;593;53.184;8.216;2023-06-14T10:51:38;101624.81;;;25.87;43.55
1207;BME280;593;53.184;8.216;2023-06-14T10:54:12;101629.63;;;25.90;42.80
1207;BME280;593;53.184;8.216;2023-06-14T10:56:53;101607.56;;;26.01;42.46
1207;BME280;593;53.184;8.216;2023-06-14T10:59:20;101615.31;;;26.07;42.89
1207;BME280;593;53.184;8.216;2023-06-14T11:04:50;101620.66;;;26.32;41.91
1207;BME280;593;53.184;8.216;2023-06-14T11:12:26;101604.16;;;26.42;42.45
1207;BME280;593;53.184;8.216;2023-06-14T11:14:53;101599.44;;;26.46;43.14
1207;BME280;593;53.184;8.216;2023-06-14T11:17:18;101602.03;;;26.55;40.79
1207;BME280;593;53.184;8.216;2023-06-14T11:19:44;101596.00;;;26.53;42.22
1207;BME280;593;53.184;8.216;2023-06-14T11:22:09;101591.22;;;26.72;41.73
1207;BME280;593;53.184;8.216;2023-06-14T11:24:34;101597.31;;;26.78;40.78
1207;BME280;593;53.184;8.216;2023-06-14T11:27:00;101588.59;;;26.80;40.07
1207;BME280;593;53.184;8.216;2023-06-14T11:29:29;101586.00;;;26.90;40.69
1207;BME280;593;53.184;8.216;2023-06-14T11:31:54;101593.91;;;27.07;41.25
1207;BME280;593;53.184;8.216;2023-06-14T11:34:20;101593.34;;;27.21;39.66
1207;BME280;593;53.184;8.216;2023-06-14T11:36:45;101596.75;;;27.11;38.72
1207;BME280;593;53.184;8.216;2023-06-14T11:39:12;101585.13;;;27.09;39.56
1207;BME280;593;53.184;8.216;2023-06-14T11:41:43;101579.44;;;27.02;39.92
1207;BME280;593;53.184;8.216;2023-06-14T11:44:09;101588.09;;;26.97;39.92
1207;BME280;593;53.184;8.216;2023-06-14T11:46:35;101589.13;;;27.08;39.85
1207;BME280;593;53.184;8.216;2023-06-14T11:49:02;101575.63;;;27.13;41.10
1207;BME280;593;53.184;8.216;2023-06-14T11:51:33;101570.66;;;27.26;39.62
1207;BME280;593;53.184;8.216;2023-06-14T11:53:59;101566.28;;;27.25;39.70
1207;BME280;593;53.184;8.216;2023-06-14T11:56:24;101577.56;;;27.32;40.02
1207;BME280;593;53.184;8.216;2023-06-14T11:58:52;101571.88;;;27.48;39.52
1207;BME280;593;53.184;8.216;2023-06-14T12:01:21;101577.16;;;27.53;38.65
1207;BME280;593;53.184;8.216;2023-06-14T12:03:50;101579.56;;;27.54;39.21
1207;BME280;593;53.184;8.216;2023-06-14T12:06:16;101564.72;;;27.50;39.08
1207;BME280;593;53.184;8.216;2023-06-14T12:08:43;101572.41;;;27.57;39.27
1207;BME280;593;53.184;8.216;2023-06-14T12:11:12;101573.13;;;27.50;37.77
1207;BME280;593;53.184;8.216;2023-06-14T12:13:42;101565.78;;;27.42;38.61
1207;BME280;593;53.184;8.216;2023-06-14T12:16:10;101567.19;;;27.32;37.72
1207;BME280;593;53.184;8.216;2023-06-14T12:18:38;101567.41;;;27.20;37.96
1207;BME280;593;53.184;8.216;2023-06-14T12:21:07;101564.16;;;27.18;38.29
1207;BME280;593;53.184;8.216;2023-06-14T12:23:47;101563.78;;;27.20;38.21
1207;BME280;593;53.184;8.216;2023-06-14T12:26:13;101570.94;;;27.17;37.72
1207;BME280;593;53.184;8.216;2023-06-14T12:28:40;101561.13;;;27.04;37.28
1207;BME280;593;53.184;8.216;2023-06-14T12:31:07;101563.34;;;26.95;37.82
1207;BME280;593;53.184;8.216;2023-06-14T12:33:32;101564.34;;;27.06;38.05
1207;BME280;593;53.184;8.216;2023-06-14T12:35:58;101565.66;;;27.12;37.80
1207;BME280;593;53.184;8.216;2023-06-14T12:38:24;101549.13;;;27.26;39.34
1207;BME280;593;53.184;8.216;2023-06-14T12:40:49;101564.22;;;27.45;40.02
1207;BME280;593;53.184;8.216;2023-06-14T12:43:15;101558.91;;;27.62;40.11
1207;BME280;593;53.184;8.216;2023-06-14T12:45:40;101551.66;;;27.84;37.41
1207;BME280;593;53.184;8.216;2023-06-14T12:48:05;101540.84;;;27.82;37.66
1207;BME280;593;53.184;8.216;2023-06-14T12:50:31;101562.66;;;27.99;39.62
1207;BME280;593;53.184;8.216;2023-06-14T12:52:56;101559.31;;;28.17;39.02
1207;BME280;593;53.184;8.216;2023-06-14T12:55:21;101559.06;;;28.29;37.13
1207;BME280;593;53.184;8.216;2023-06-14T12:57:47;101567.13;;;28.34;37.90
1207;BME280;593;53.184;8.216;2023-06-14T13:00:15;101552.69;;;28.28;36.84
1207;BME280;593;53.184;8.216;2023-06-14T13:02:40;101559.94;;;28.33;39.12
1207;BME280;593;53.184;8.216;2023-06-14T13:05:06;101554.34;;;28.33;37.15
1207;BME280;593;53.184;8.216;2023-06-14T13:07:32;101569.09;;;28.30;37.05
1207;BME280;593;53.184;8.216;2023-06-14T13:09:57;101566.34;;;28.33;37.75
1207;BME280;593;53.184;8.216;2023-06-14T13:12:23;101558.88;;;28.44;37.58
1207;BME280;593;53.184;8.216;2023-06-14T13:14:49;101557.31;;;28.47;36.42
1207;BME280;593;53.184;8.216;2023-06-14T13:17:14;101565.63;;;28.40;36.32
1207;BME280;593;53.184;8.216;2023-06-14T13:19:40;101569.09;;;28.30;35.97
1207;BME280;593;53.184;8.216;2023-06-14T13:22:07;101557.84;;;28.26;36.30
1207;BME280;593;53.184;8.216;2023-06-14T13:24:33;101554.44;;;28.40;37.59
1207;BME280;593;53.184;8.216;2023-06-14T13:26:59;101542.06;;;28.44;36.92
1207;BME280;593;53.184;8.216;2023-06-14T13:29:25;101538.59;;;28.54;37.23
1207;BME280;593;53.184;8.216;2023-06-14T13:31:50;101542.03;;;28.74;38.16
1207;BME280;593;53.184;8.216;2023-06-14T13:34:16;101544.66;;;28.93;36.66
1207;BME280;593;53.184;8.216;2023-06-14T13:36:41;101530.31;;;29.02;37.33